Time;durP1;ratioP1;P1;durP2;ratioP2;P2;SDS_P1;SDS_P2;PMS_P1;PMS_P2;Temp;Humidity;BMP_temperature;BMP_pressure;BME280_temperature;BME280_humidity;BME280_pressure;Samples;Min_cycle;Max_cycle;Signal;HPM_P1;HPM_P2
2022/03/01 00:00:48;;;;;;;17.27;9.15;;;;;;;;;;5109229;28;20027;-66
2022/03/01 00:03:14;;;;;;;17.80;8.93;;;;;;;;;;5092242;28;20043;-67
2022/03/01 00:05:40;;;;;;;14.52;9.65;;;;;;;;;;5112332;28;20037;-67
2022/03/01 00:08:07;;;;;;;14.30;9.68;;;;;;;;;;5110461;28;20027;-67
2022/03/01 00:10:32;;;;;;;13.98;9.15;;;;;;;;;;5102134;28;20031;-67
2022/03/01 00:12:58;;;;;;;15.63;9.40;;;;;;;;;;5097832;28;20044;-67
2022/03/01 00:15:24;;;;;;;14.13;9.07;;;;;;;;;;5095500;28;20400;-65
2022/03/01 00:17:50;;;;;;;16.35;10.02;;;;;;;;;;5077073;28;20024;-65
2022/03/01 00:20:16;;;;;;;16.45;9.80;;;;;;;;;;5097295;28;20526;-66
2022/03/01 00:22:42;;;;;;;13.70;9.63;;;;;;;;;;5098001;28;20035;-66
2022/03/01 00:25:09;;;;;;;16.65;9.68;;;;;;;;;;5097247;28;20016;-66
2022/03/01 00:27:35;;;;;;;16.33;9.82;;;;;;;;;;5095302;28;20088;-65
2022/03/01 00:30:01;;;;;;;13.20;9.07;;;;;;;;;;5109035;28;20500;-66
2022/03/01 00:32:27;;;;;;;18.52;9.18;;;;;;;;;;5096992;28;20036;-66
2022/03/01 00:34:53;;;;;;;18.92;9.07;;;;;;;;;;5097026;28;20039;-67
2022/03/01 00:37:18;;;;;;;15.73;8.70;;;;;;;;;;5097282;28;20487;-68
2022/03/01 00:39:44;;;;;;;12.50;7.80;;;;;;;;;;5091740;28;20032;-65
2022/03/01 00:42:10;;;;;;;16.23;8.82;;;;;;;;;;5093502;28;20040;-66
2022/03/01 00:44:37;;;;;;;13.35;8.05;;;;;;;;;;5106596;28;20054;-66
2022/03/01 00:47:03;;;;;;;14.25;8.57;;;;;;;;;;5097696;28;20024;-66
2022/03/01 00:49:29;;;;;;;11.50;7.55;;;;;;;;;;5102348;28;20038;-66
2022/03/01 00:51:55;;;;;;;14.00;7.22;;;;;;;;;;5106131;28;20040;-66
2022/03/01 00:54:21;;;;;;;13.75;7.50;;;;;;;;;;5094767;28;20044;-66
2022/03/01 00:56:47;;;;;;;11.85;7.93;;;;;;;;;;5094369;28;20031;-66
2022/03/01 00:59:13;;;;;;;13.90;7.93;;;;;;;;;;5087500;28;20062;-66
2022/03/01 01:01:39;;;;;;;11.43;7.57;;;;;;;;;;5099717;28;20047;-66
2022/03/01 01:04:05;;;;;;;13.90;7.95;;;;;;;;;;5078295;28;20040;-66
2022/03/01 01:06:31;;;;;;;11.95;7.35;;;;;;;;;;5095476;28;20031;-66
2022/03/01 01:08:57;;;;;;;13.52;7.78;;;;;;;;;;5093008;28;20036;-66
2022/03/01 01:11:23;;;;;;;12.02;7.07;;;;;;;;;;5095638;28;20020;-67
2022/03/01 01:13:49;;;;;;;11.57;7.10;;;;;;;;;;5095828;28;20032;-66
2022/03/01 01:16:15;;;;;;;12.25;7.43;;;;;;;;;;5096248;28;20031;-66
2022/03/01 01:18:43;;;;;;;13.18;8.00;;;;;;;;;;5079305;28;20487;-66
2022/03/01 01:21:10;;;;;;;14.00;8.38;;;;;;;;;;5092277;28;20468;-66
2022/03/01 01:23:36;;;;;;;13.50;7.75;;;;;;;;;;5095669;28;20027;-66
2022/03/01 01:26:02;;;;;;;12.57;8.05;;;;;;;;;;5087540;28;20015;-66
2022/03/01 01:28:28;;;;;;;13.02;7.30;;;;;;;;;;5100627;28;20466;-67
2022/03/01 01:30:54;;;;;;;11.15;7.50;;;;;;;;;;5096027;28;20108;-66
2022/03/01 01:33:20;;;;;;;13.43;7.22;;;;;;;;;;5093784;28;20055;-66
2022/03/01 01:35:46;;;;;;;14.98;8.40;;;;;;;;;;5074282;28;20138;-67
2022/03/01 01:38:12;;;;;;;12.27;7.65;;;;;;;;;;5103401;28;20421;-66
2022/03/01 01:40:38;;;;;;;11.10;6.30;;;;;;;;;;5098317;28;20047;-66
2022/03/01 01:43:05;;;;;;;11.43;6.85;;;;;;;;;;5095696;28;20050;-66
2022/03/01 01:45:31;;;;;;;10.38;6.72;;;;;;;;;;5095176;28;20042;-66
2022/03/01 01:47:58;;;;;;;10.02;6.55;;;;;;;;;;5074569;28;20573;-66
2022/03/01 01:50:24;;;;;;;14.40;8.02;;;;;;;;;;5095458;28;20035;-66
2022/03/01 01:52:51;;;;;;;11.90;7.68;;;;;;;;;;5078046;28;20043;-66
2022/03/01 01:55:19;;;;;;;15.32;7.47;;;;;;;;;;5077622;28;20059;-66
2022/03/01 01:57:45;;;;;;;12.55;7.30;;;;;;;;;;5093787;28;20024;-68
2022/03/01 02:00:12;;;;;;;12.15;7.63;;;;;;;;;;5108929;28;20102;-66
2022/03/01 02:02:38;;;;;;;13.75;7.80;;;;;;;;;;5088992;28;20453;-66
2022/03/01 02:05:05;;;;;;;12.63;6.43;;;;;;;;;;5095844;28;20584;-65
2022/03/01 02:07:31;;;;;;;11.98;7.80;;;;;;;;;;5096264;28;20046;-68
2022/03/01 02:09:57;;;;;;;11.10;7.43;;;;;;;;;;5095871;28;20579;-65
2022/03/01 02:12:23;;;;;;;14.77;7.53;;;;;;;;;;5075931;28;20023;-67
2022/03/01 02:14:49;;;;;;;13.00;7.65;;;;;;;;;;5093017;28;20028;-66
2022/03/01 02:17:15;;;;;;;12.95;8.40;;;;;;;;;;5095045;28;20066;-66
2022/03/01 02:19:48;;;;;;;11.43;7.35;;;;;;;;;;5095853;28;20031;-66
2022/03/01 02:22:14;;;;;;;12.15;6.88;;;;;;;;;;5095662;28;20034;-67
2022/03/01 02:24:40;;;;;;;12.23;7.70;;;;;;;;;;5077781;28;20031;-66
2022/03/01 02:27:06;;;;;;;11.45;6.15;;;;;;;;;;5091458;28;20110;-66
2022/03/01 02:29:32;;;;;;;11.75;7.22;;;;;;;;;;5087950;28;20044;-66
2022/03/01 02:31:59;;;;;;;13.80;5.65;;;;;;;;;;5096017;28;20032;-66
2022/03/01 02:34:25;;;;;;;13.07;8.13;;;;;;;;;;5095340;28;20024;-66
2022/03/01 02:36:51;;;;;;;9.60;5.35;;;;;;;;;;5077927;28;20038;-66
2022/03/01 02:39:17;;;;;;;11.00;6.50;;;;;;;;;;5085593;28;20115;-66
2022/03/01 02:41:44;;;;;;;12.52;6.22;;;;;;;;;;5085029;28;20398;-66
2022/03/01 02:44:11;;;;;;;8.27;4.70;;;;;;;;;;5085595;28;20063;-66
2022/03/01 02:46:37;;;;;;;8.65;4.53;;;;;;;;;;5100141;28;20035;-66
2022/03/01 02:49:04;;;;;;;11.60;6.50;;;;;;;;;;5099824;28;20028;-66
2022/03/01 02:51:30;;;;;;;9.85;5.13;;;;;;;;;;5097792;28;20020;-66
2022/03/01 02:53:56;;;;;;;12.73;7.47;;;;;;;;;;5077384;28;20032;-66
2022/03/01 02:56:23;;;;;;;14.68;6.95;;;;;;;;;;5081139;28;20040;-66
2022/03/01 02:58:49;;;;;;;11.02;6.25;;;;;;;;;;5099297;28;20466;-66
2022/03/01 03:01:15;;;;;;;14.38;6.10;;;;;;;;;;5099087;28;20543;-66
2022/03/01 03:03:41;;;;;;;10.30;6.05;;;;;;;;;;5098625;28;20019;-66
2022/03/01 03:06:07;;;;;;;10.75;4.90;;;;;;;;;;5093791;28;20030;-66
2022/03/01 03:08:33;;;;;;;11.98;4.80;;;;;;;;;;5098129;28;20081;-66
2022/03/01 03:10:59;;;;;;;9.32;5.35;;;;;;;;;;5098867;28;20103;-65
2022/03/01 03:13:26;;;;;;;13.10;5.30;;;;;;;;;;5098935;28;20276;-65
2022/03/01 03:15:52;;;;;;;11.43;5.68;;;;;;;;;;5099219;28;20035;-65
2022/03/01 03:18:19;;;;;;;11.48;5.47;;;;;;;;;;5096114;28;20027;-66
2022/03/01 03:20:45;;;;;;;13.02;5.82;;;;;;;;;;5110553;28;20049;-66
2022/03/01 03:23:11;;;;;;;10.60;5.35;;;;;;;;;;5098619;28;20055;-66
2022/03/01 03:25:37;;;;;;;10.00;5.55;;;;;;;;;;5098452;28;20042;-65
2022/03/01 03:28:03;;;;;;;12.55;5.43;;;;;;;;;;5098400;28;20028;-65
2022/03/01 03:30:29;;;;;;;9.40;4.35;;;;;;;;;;5097898;28;20031;-66
2022/03/01 03:32:55;;;;;;;8.43;4.53;;;;;;;;;;5095433;28;20121;-65
2022/03/01 03:35:21;;;;;;;7.07;4.50;;;;;;;;;;5097719;28;20035;-66
2022/03/01 03:37:48;;;;;;;8.52;4.13;;;;;;;;;;5102234;28;20119;-66
2022/03/01 03:40:14;;;;;;;8.73;3.92;;;;;;;;;;5105224;28;20059;-66
2022/03/01 03:42:41;;;;;;;8.65;5.07;;;;;;;;;;5098670;28;20028;-66
2022/03/01 03:45:08;;;;;;;7.20;3.85;;;;;;;;;;5076511;28;20031;-66
2022/03/01 03:47:34;;;;;;;9.32;4.13;;;;;;;;;;5078972;28;20105;-66
2022/03/01 03:50:00;;;;;;;8.10;4.60;;;;;;;;;;5098623;28;20040;-68
2022/03/01 03:52:26;;;;;;;9.13;5.20;;;;;;;;;;5080738;28;20084;-66
2022/03/01 03:54:52;;;;;;;7.60;3.78;;;;;;;;;;5079887;28;20035;-66
2022/03/01 03:57:18;;;;;;;7.82;4.30;;;;;;;;;;5095661;28;20031;-66
2022/03/01 03:59:44;;;;;;;10.57;5.03;;;;;;;;;;5110926;28;20102;-66
2022/03/01 04:02:10;;;;;;;6.80;3.10;;;;;;;;;;5091800;28;20035;-66
2022/03/01 04:04:37;;;;;;;9.95;5.03;;;;;;;;;;5083714;28;20028;-66
2022/03/01 04:07:03;;;;;;;6.68;3.33;;;;;;;;;;5098367;28;20060;-65
2022/03/01 04:09:29;;;;;;;6.43;3.03;;;;;;;;;;5079207;28;20089;-66
2022/03/01 04:11:55;;;;;;;8.13;3.92;;;;;;;;;;5076873;28;20057;-66
2022/03/01 04:14:21;;;;;;;6.18;3.47;;;;;;;;;;5097508;28;20439;-66
2022/03/01 04:16:47;;;;;;;7.97;2.80;;;;;;;;;;5098317;28;20040;-66
2022/03/01 04:19:13;;;;;;;7.35;3.83;;;;;;;;;;5102668;28;20047;-68
2022/03/01 04:21:39;;;;;;;5.97;3.53;;;;;;;;;;5109676;28;20388;-66
2022/03/01 04:24:06;;;;;;;11.13;3.75;;;;;;;;;;5107472;28;20031;-66
2022/03/01 04:26:32;;;;;;;7.10;3.10;;;;;;;;;;5119103;27;20034;-66
2022/03/01 04:28:58;;;;;;;8.85;3.85;;;;;;;;;;5119965;27;20114;-66
2022/03/01 04:31:24;;;;;;;6.03;2.45;;;;;;;;;;5120407;27;20111;-66
2022/03/01 04:33:50;;;;;;;9.82;3.78;;;;;;;;;;5120289;27;20034;-66
2022/03/01 04:36:16;;;;;;;6.40;3.05;;;;;;;;;;5102747;27;20039;-66
2022/03/01 04:38:42;;;;;;;9.07;3.70;;;;;;;;;;5121440;27;20278;-66
2022/03/01 04:41:09;;;;;;;7.78;4.00;;;;;;;;;;5107628;28;20080;-66
2022/03/01 04:43:35;;;;;;;8.35;3.45;;;;;;;;;;5100791;28;20467;-66
2022/03/01 04:46:01;;;;;;;6.50;3.63;;;;;;;;;;5097181;28;20488;-66
2022/03/01 04:48:27;;;;;;;8.75;4.13;;;;;;;;;;5096409;28;20047;-66
2022/03/01 04:50:53;;;;;;;7.13;4.13;;;;;;;;;;5094596;28;20493;-66
2022/03/01 04:53:19;;;;;;;7.78;3.60;;;;;;;;;;5097022;28;20028;-66
2022/03/01 04:55:45;;;;;;;7.45;3.53;;;;;;;;;;5096380;28;20097;-66
2022/03/01 04:58:12;;;;;;;7.15;3.65;;;;;;;;;;5097755;28;20409;-66
2022/03/01 05:00:38;;;;;;;9.32;2.75;;;;;;;;;;5097732;28;20035;-66
2022/03/01 05:03:04;;;;;;;5.18;3.05;;;;;;;;;;5093335;28;20027;-67
2022/03/01 05:05:30;;;;;;;6.32;3.33;;;;;;;;;;5111761;28;20157;-66
2022/03/01 05:07:56;;;;;;;7.00;3.45;;;;;;;;;;5098006;28;20081;-67
2022/03/01 05:10:22;;;;;;;5.50;2.78;;;;;;;;;;5095750;28;20024;-66
2022/03/01 05:12:50;;;;;;;8.13;4.03;;;;;;;;;;5097218;28;20062;-66
2022/03/01 05:15:17;;;;;;;8.43;3.75;;;;;;;;;;5093410;28;20043;-66
2022/03/01 05:17:43;;;;;;;6.63;3.53;;;;;;;;;;5094225;28;20024;-67
2022/03/01 05:20:09;;;;;;;5.47;3.20;;;;;;;;;;5097056;28;20043;-67
2022/03/01 05:22:36;;;;;;;6.40;3.08;;;;;;;;;;5097189;28;20024;-65
2022/03/01 05:25:02;;;;;;;4.25;2.22;;;;;;;;;;5078787;28;20473;-65
2022/03/01 05:27:29;;;;;;;7.60;3.95;;;;;;;;;;5095518;28;20019;-65
2022/03/01 05:29:55;;;;;;;7.50;3.35;;;;;;;;;;5075157;28;20040;-65
2022/03/01 05:32:21;;;;;;;9.02;3.17;;;;;;;;;;5091562;28;20395;-67
2022/03/01 05:34:47;;;;;;;6.32;3.58;;;;;;;;;;5098157;28;20043;-66
2022/03/01 05:37:13;;;;;;;3.63;2.40;;;;;;;;;;5079277;28;20051;-66
2022/03/01 05:39:39;;;;;;;6.55;3.38;;;;;;;;;;5107847;28;20391;-66
2022/03/01 05:42:05;;;;;;;7.53;3.70;;;;;;;;;;5074200;28;20106;-66
2022/03/01 05:44:31;;;;;;;5.72;3.00;;;;;;;;;;5096137;28;20043;-66
2022/03/01 05:46:59;;;;;;;8.57;3.38;;;;;;;;;;5095806;28;20423;-66
2022/03/01 05:49:25;;;;;;;4.97;2.93;;;;;;;;;;5096627;28;20016;-66
2022/03/01 05:51:51;;;;;;;6.63;3.42;;;;;;;;;;5096785;28;20030;-66
2022/03/01 05:54:17;;;;;;;6.35;2.92;;;;;;;;;;5092901;28;20063;-66
2022/03/01 05:56:43;;;;;;;4.88;2.65;;;;;;;;;;5089443;28;20023;-66
2022/03/01 05:59:09;;;;;;;10.40;3.38;;;;;;;;;;5105966;28;20035;-66
2022/03/01 06:01:35;;;;;;;6.30;3.33;;;;;;;;;;5100015;28;20464;-66
2022/03/01 06:04:01;;;;;;;7.07;3.75;;;;;;;;;;5095848;28;20024;-66
2022/03/01 06:06:27;;;;;;;9.40;3.88;;;;;;;;;;5094590;28;21615;-66
2022/03/01 06:08:52;;;;;;;5.85;3.08;;;;;;;;;;5093516;28;20032;-66
2022/03/01 06:11:18;;;;;;;6.00;3.30;;;;;;;;;;5095432;28;20031;-66
2022/03/01 06:13:44;;;;;;;9.30;3.78;;;;;;;;;;5096136;28;20024;-66
2022/03/01 06:16:10;;;;;;;8.38;3.60;;;;;;;;;;5095331;28;20540;-67
2022/03/01 06:18:36;;;;;;;7.43;3.70;;;;;;;;;;5095991;28;20028;-66
2022/03/01 06:21:04;;;;;;;9.48;3.65;;;;;;;;;;5091611;28;20041;-66
2022/03/01 06:23:31;;;;;;;9.43;3.95;;;;;;;;;;5094842;28;20449;-67
2022/03/01 06:25:57;;;;;;;7.75;4.05;;;;;;;;;;5095630;28;20640;-66
2022/03/01 06:28:23;;;;;;;7.10;3.65;;;;;;;;;;5095935;28;20040;-66
2022/03/01 06:30:49;;;;;;;7.60;3.65;;;;;;;;;;5095746;28;20031;-66
2022/03/01 06:33:18;;;;;;;8.27;2.70;;;;;;;;;;5093061;28;20028;-66
2022/03/01 06:35:44;;;;;;;7.85;3.60;;;;;;;;;;5106459;28;20027;-66
2022/03/01 06:38:10;;;;;;;6.70;3.50;;;;;;;;;;5103464;28;20012;-66
2022/03/01 06:40:36;;;;;;;8.32;3.28;;;;;;;;;;5099405;28;20032;-66
2022/03/01 06:43:02;;;;;;;6.70;3.53;;;;;;;;;;5095658;28;20531;-67
2022/03/01 06:45:28;;;;;;;7.22;4.13;;;;;;;;;;5093618;28;20119;-67
2022/03/01 06:47:54;;;;;;;9.35;3.75;;;;;;;;;;5092847;28;20024;-66
2022/03/01 06:50:20;;;;;;;6.63;3.40;;;;;;;;;;5095485;28;20495;-66
2022/03/01 06:52:46;;;;;;;7.57;3.40;;;;;;;;;;5095367;28;20094;-66
2022/03/01 06:55:12;;;;;;;7.40;3.65;;;;;;;;;;5095430;28;20481;-66
2022/03/01 06:57:39;;;;;;;8.27;3.80;;;;;;;;;;5095108;28;20080;-66
2022/03/01 07:00:06;;;;;;;8.45;3.53;;;;;;;;;;5094361;28;20046;-65
2022/03/01 07:02:38;;;;;;;7.68;3.42;;;;;;;;;;5110844;28;20012;-66
2022/03/01 07:05:04;;;;;;;11.13;3.55;;;;;;;;;;5110019;28;20047;-66
2022/03/01 07:07:30;;;;;;;7.28;3.30;;;;;;;;;;5091099;28;20089;-66
2022/03/01 07:09:56;;;;;;;6.75;3.47;;;;;;;;;;5108928;28;20102;-66
2022/03/01 07:12:22;;;;;;;6.45;3.40;;;;;;;;;;5109141;28;20038;-66
2022/03/01 07:14:48;;;;;;;6.75;3.42;;;;;;;;;;5108860;28;20042;-66
2022/03/01 07:17:16;;;;;;;6.65;3.53;;;;;;;;;;5110255;28;20020;-66
2022/03/01 07:19:42;;;;;;;;;;;;;;;;;;5109346;28;20440;-66
2022/03/01 07:22:08;;;;;;;10.68;3.70;;;;;;;;;;5091534;28;19908;-66
2022/03/01 07:24:34;;;;;;;8.30;3.45;;;;;;;;;;5108928;28;20028;-66
2022/03/01 07:27:00;;;;;;;5.97;3.67;;;;;;;;;;5090294;28;20477;-66
2022/03/01 07:29:26;;;;;;;8.20;3.90;;;;;;;;;;5110266;28;20097;-66
2022/03/01 07:31:52;;;;;;;7.13;3.47;;;;;;;;;;5107674;28;20044;-67
2022/03/01 07:34:19;;;;;;;7.60;3.80;;;;;;;;;;5110274;28;20484;-66
2022/03/01 07:36:45;;;;;;;5.90;3.20;;;;;;;;;;5112642;28;20084;-66
2022/03/01 07:39:10;;;;;;;7.35;3.45;;;;;;;;;;5114282;27;20024;-66
2022/03/01 07:41:36;;;;;;;8.15;3.88;;;;;;;;;;5113441;28;20038;-65
2022/03/01 07:44:02;;;;;;;7.30;3.70;;;;;;;;;;5112313;28;20099;-65
2022/03/01 07:46:28;;;;;;;7.57;3.63;;;;;;;;;;5112099;28;20022;-65
2022/03/01 07:48:54;;;;;;;5.82;3.20;;;;;;;;;;5112145;28;20482;-65
2022/03/01 07:51:20;;;;;;;9.00;3.65;;;;;;;;;;5112414;28;20098;-66
2022/03/01 07:53:47;;;;;;;6.18;3.50;;;;;;;;;;5112149;28;20023;-65
2022/03/01 07:56:14;;;;;;;6.05;3.45;;;;;;;;;;5112802;28;20027;-66
2022/03/01 07:58:40;;;;;;;8.10;3.65;;;;;;;;;;5111708;28;20476;-65
2022/03/01 08:01:06;;;;;;;7.03;3.53;;;;;;;;;;5112082;28;20434;-66
2022/03/01 08:03:32;;;;;;;8.68;3.80;;;;;;;;;;5112301;28;20107;-66
2022/03/01 08:05:58;;;;;;;7.53;3.63;;;;;;;;;;5093009;28;20114;-65
2022/03/01 08:08:24;;;;;;;8.05;4.03;;;;;;;;;;5097904;28;20016;-66
2022/03/01 08:10:52;;;;;;;7.10;3.70;;;;;;;;;;5099951;27;20369;-65
2022/03/01 08:13:18;;;;;;;6.23;3.37;;;;;;;;;;5106423;27;20016;-64
2022/03/01 08:15:44;;;;;;;7.95;3.78;;;;;;;;;;5108884;28;20039;-64
2022/03/01 08:18:10;;;;;;;7.40;3.88;;;;;;;;;;5093145;28;20020;-65
2022/03/01 08:20:36;;;;;;;8.77;3.95;;;;;;;;;;5096020;28;20110;-64
2022/03/01 08:23:02;;;;;;;9.70;3.95;;;;;;;;;;5098303;28;20056;-64
2022/03/01 08:25:28;;;;;;;8.73;3.50;;;;;;;;;;5099294;28;20023;-64
2022/03/01 08:27:56;;;;;;;6.80;3.90;;;;;;;;;;5106873;28;20111;-64
2022/03/01 08:30:23;;;;;;;9.38;4.15;;;;;;;;;;5096623;28;20038;-63
2022/03/01 08:32:49;;;;;;;8.00;4.03;;;;;;;;;;5094514;28;20024;-63
2022/03/01 08:35:15;;;;;;;7.40;3.95;;;;;;;;;;5087741;28;20039;-65
2022/03/01 08:37:41;;;;;;;6.90;3.30;;;;;;;;;;5106316;27;20068;-65
2022/03/01 08:40:08;;;;;;;8.10;3.63;;;;;;;;;;5105188;28;20028;-63
2022/03/01 08:42:34;;;;;;;8.15;3.70;;;;;;;;;;5095865;28;20035;-66
2022/03/01 08:45:00;;;;;;;6.88;3.58;;;;;;;;;;5106877;27;20028;-65
2022/03/01 08:47:26;;;;;;;7.13;3.50;;;;;;;;;;5096531;28;20024;-67
2022/03/01 08:49:53;;;;;;;9.20;3.47;;;;;;;;;;5096744;28;20051;-66
2022/03/01 08:52:19;;;;;;;7.85;4.05;;;;;;;;;;5095683;28;20165;-67
2022/03/01 08:54:45;;;;;;;5.65;3.25;;;;;;;;;;5095003;28;20039;-65
2022/03/01 08:57:11;;;;;;;7.18;3.80;;;;;;;;;;5096153;28;20104;-66
2022/03/01 08:59:37;;;;;;;7.68;3.40;;;;;;;;;;5093419;28;20233;-66
2022/03/01 09:02:04;;;;;;;8.45;4.32;;;;;;;;;;5104168;28;20400;-66
2022/03/01 09:04:30;;;;;;;7.18;3.60;;;;;;;;;;5105702;28;20026;-66
2022/03/01 09:06:56;;;;;;;6.68;3.75;;;;;;;;;;5104642;28;20035;-67
2022/03/01 09:09:22;;;;;;;7.78;3.67;;;;;;;;;;5094157;28;20035;-67
2022/03/01 09:11:48;;;;;;;8.80;4.18;;;;;;;;;;5093812;28;20024;-67
2022/03/01 09:14:14;;;;;;;7.25;4.03;;;;;;;;;;5094622;28;20111;-67
2022/03/01 09:16:40;;;;;;;8.82;4.03;;;;;;;;;;5096083;28;20036;-67
2022/03/01 09:19:10;;;;;;;7.32;3.70;;;;;;;;;;5095941;28;20028;-67
2022/03/01 09:21:36;;;;;;;9.20;3.83;;;;;;;;;;5096922;28;20438;-67
2022/03/01 09:24:02;;;;;;;7.28;3.72;;;;;;;;;;5092446;28;20044;-67
2022/03/01 09:26:28;;;;;;;8.43;3.65;;;;;;;;;;5095891;28;20063;-67
2022/03/01 09:28:54;;;;;;;7.72;3.63;;;;;;;;;;5096553;28;20239;-68
2022/03/01 09:31:20;;;;;;;6.53;3.88;;;;;;;;;;5096470;28;20050;-67
2022/03/01 09:33:46;;;;;;;8.90;3.80;;;;;;;;;;5096651;28;20023;-66
2022/03/01 09:36:13;;;;;;;6.63;3.95;;;;;;;;;;5092382;28;20032;-66
2022/03/01 09:38:40;;;;;;;7.63;3.95;;;;;;;;;;5088077;28;20110;-66
2022/03/01 09:41:06;;;;;;;5.90;3.58;;;;;;;;;;5097039;28;20028;-66
2022/03/01 09:43:36;;;;;;;8.23;4.40;;;;;;;;;;5096168;28;20032;-66
2022/03/01 09:46:02;;;;;;;8.50;4.38;;;;;;;;;;5096177;28;20023;-67
2022/03/01 09:48:28;;;;;;;8.45;4.13;;;;;;;;;;5093891;28;20393;-66
2022/03/01 09:50:55;;;;;;;9.18;4.80;;;;;;;;;;5108370;28;20020;-66
2022/03/01 09:53:21;;;;;;;7.60;4.00;;;;;;;;;;5077930;28;20024;-66
2022/03/01 09:55:47;;;;;;;7.68;4.30;;;;;;;;;;5096419;28;20047;-66
2022/03/01 09:58:13;;;;;;;7.97;4.18;;;;;;;;;;5078089;28;20019;-69
2022/03/01 10:00:39;;;;;;;7.78;4.07;;;;;;;;;;5096130;28;20484;-66
2022/03/01 10:03:08;;;;;;;6.82;3.90;;;;;;;;;;5090437;28;20384;-66
2022/03/01 10:05:38;;;;;;;9.73;4.00;;;;;;;;;;5107197;28;20019;-66
2022/03/01 10:08:08;;;;;;;9.27;4.35;;;;;;;;;;5105537;28;20396;-66
2022/03/01 10:10:38;;;;;;;6.97;4.25;;;;;;;;;;5099548;28;20028;-66
2022/03/01 10:13:04;;;;;;;7.97;4.63;;;;;;;;;;5096369;28;20086;-66
2022/03/01 10:15:31;;;;;;;7.70;4.20;;;;;;;;;;5094717;28;20039;-66
2022/03/01 10:17:58;;;;;;;8.65;5.03;;;;;;;;;;5092909;28;20739;-67
2022/03/01 10:20:24;;;;;;;8.43;4.78;;;;;;;;;;5095179;28;20089;-68
2022/03/01 10:22:51;;;;;;;7.72;4.93;;;;;;;;;;5095713;28;20469;-66
2022/03/01 10:25:19;;;;;;;8.77;4.88;;;;;;;;;;5096019;28;20046;-66
2022/03/01 10:27:46;;;;;;;8.45;5.13;;;;;;;;;;5094031;28;20103;-68
2022/03/01 10:30:12;;;;;;;8.40;4.70;;;;;;;;;;5107432;28;20044;-67
2022/03/01 10:32:38;;;;;;;9.40;5.20;;;;;;;;;;5094759;28;20020;-66
2022/03/01 10:35:06;;;;;;;6.90;4.60;;;;;;;;;;5095829;28;20042;-66
2022/03/01 10:37:33;;;;;;;10.23;5.57;;;;;;;;;;5097662;28;20125;-67
2022/03/01 10:40:17;;;;;;;11.05;5.38;;;;;;;;;;5104747;28;20028;-67
2022/03/01 10:42:44;;;;;;;11.68;5.85;;;;;;;;;;5095399;28;20031;-67
2022/03/01 10:45:10;;;;;;;12.98;6.18;;;;;;;;;;5091343;28;20023;-67
2022/03/01 10:47:37;;;;;;;10.50;5.22;;;;;;;;;;5094997;28;20016;-67
2022/03/01 10:50:08;;;;;;;14.88;5.35;;;;;;;;;;5104554;28;20027;-67
2022/03/01 10:52:34;;;;;;;8.50;5.50;;;;;;;;;;5081526;28;20546;-67
2022/03/01 10:55:01;;;;;;;8.60;5.30;;;;;;;;;;5078061;28;20377;-67
2022/03/01 10:57:27;;;;;;;9.98;4.75;;;;;;;;;;5093630;28;20085;-67
2022/03/01 10:59:53;;;;;;;10.55;4.95;;;;;;;;;;5093017;28;20034;-67
2022/03/01 11:02:19;;;;;;;7.97;4.82;;;;;;;;;;5095118;28;20013;-67
2022/03/01 11:04:46;;;;;;;8.88;4.95;;;;;;;;;;5095849;28;20114;-67
2022/03/01 11:07:12;;;;;;;9.68;5.00;;;;;;;;;;5097008;28;20015;-67
2022/03/01 11:09:39;;;;;;;10.43;5.45;;;;;;;;;;5109685;28;20032;-67
2022/03/01 11:12:06;;;;;;;13.27;5.10;;;;;;;;;;5077037;28;20030;-67
2022/03/01 11:14:38;;;;;;;11.07;5.60;;;;;;;;;;5099016;28;20024;-67
2022/03/01 11:17:23;;;;;;;10.30;5.25;;;;;;;;;;5108534;28;20023;-67
2022/03/01 11:20:15;;;;;;;9.40;5.00;;;;;;;;;;5101031;28;20016;-67
2022/03/01 11:22:49;;;;;;;10.55;5.45;;;;;;;;;;5095853;28;20060;-67
2022/03/01 11:25:19;;;;;;;11.35;5.55;;;;;;;;;;5081438;28;20028;-67
2022/03/01 11:27:46;;;;;;;9.05;5.35;;;;;;;;;;5099216;28;20127;-67
2022/03/01 11:30:13;;;;;;;11.43;6.07;;;;;;;;;;5095668;28;20165;-67
2022/03/01 11:32:44;;;;;;;10.93;5.80;;;;;;;;;;5097450;28;20445;-67
2022/03/01 11:35:22;;;;;;;10.18;6.13;;;;;;;;;;5108519;28;20369;-67
2022/03/01 11:37:58;;;;;;;8.88;5.13;;;;;;;;;;5104702;28;20024;-67
2022/03/01 11:40:24;;;;;;;10.05;5.35;;;;;;;;;;5104752;28;20057;-67
2022/03/01 11:42:51;;;;;;;10.23;5.88;;;;;;;;;;5098906;28;20028;-67
2022/03/01 11:45:17;;;;;;;8.48;5.35;;;;;;;;;;5095724;28;20024;-67
2022/03/01 11:47:43;;;;;;;10.82;5.82;;;;;;;;;;5102672;28;20023;-67
2022/03/01 11:50:17;;;;;;;11.63;5.28;;;;;;;;;;5108386;28;20015;-67
2022/03/01 11:52:50;;;;;;;9.10;5.70;;;;;;;;;;5101326;28;20043;-67
2022/03/01 11:55:17;;;;;;;10.30;6.05;;;;;;;;;;5098533;28;20032;-67
2022/03/01 11:57:43;;;;;;;9.45;5.30;;;;;;;;;;5098738;28;20099;-67
2022/03/01 12:00:09;;;;;;;10.90;6.25;;;;;;;;;;5094241;28;20084;-67
2022/03/01 12:02:35;;;;;;;10.80;6.05;;;;;;;;;;5078898;28;20427;-67
2022/03/01 12:05:03;;;;;;;9.05;6.22;;;;;;;;;;5098354;28;20032;-67
2022/03/01 12:07:30;;;;;;;11.68;5.95;;;;;;;;;;5098214;28;20020;-67
2022/03/01 12:09:57;;;;;;;12.35;6.47;;;;;;;;;;5098518;28;20107;-66
2022/03/01 12:12:36;;;;;;;11.88;6.50;;;;;;;;;;5096191;28;20025;-67
2022/03/01 12:15:04;;;;;;;10.93;6.60;;;;;;;;;;5093701;28;20057;-67
2022/03/01 12:17:39;;;;;;;12.10;6.53;;;;;;;;;;5097280;28;20028;-67
2022/03/01 12:20:08;;;;;;;9.02;5.88;;;;;;;;;;5079669;28;20024;-68
2022/03/01 12:22:34;;;;;;;9.40;6.07;;;;;;;;;;5098059;28;20107;-68
2022/03/01 12:25:00;;;;;;;9.90;6.03;;;;;;;;;;5098137;28;20036;-68
2022/03/01 12:27:30;;;;;;;10.38;6.30;;;;;;;;;;5096062;28;20547;-67
2022/03/01 12:29:59;;;;;;;9.02;5.78;;;;;;;;;;5095192;28;20044;-68
2022/03/01 12:32:25;;;;;;;11.82;5.82;;;;;;;;;;5097110;28;20028;-68
2022/03/01 12:34:51;;;;;;;10.35;5.60;;;;;;;;;;5097643;28;20023;-68
2022/03/01 12:37:18;;;;;;;8.55;5.28;;;;;;;;;;5097589;28;20035;-67
2022/03/01 12:39:45;;;;;;;11.50;5.63;;;;;;;;;;5109008;28;20488;-67
2022/03/01 12:42:11;;;;;;;11.20;6.32;;;;;;;;;;5076224;28;20054;-71
2022/03/01 12:44:37;;;;;;;10.13;6.30;;;;;;;;;;5096086;28;20059;-71
2022/03/01 12:47:04;;;;;;;10.38;6.03;;;;;;;;;;5105066;28;20027;-67
2022/03/01 12:49:33;;;;;;;9.65;5.68;;;;;;;;;;5097879;28;20362;-66
2022/03/01 12:51:59;;;;;;;9.55;5.80;;;;;;;;;;5097282;28;20031;-66
2022/03/01 12:54:28;;;;;;;11.23;6.20;;;;;;;;;;5095181;28;20020;-66
2022/03/01 12:56:54;;;;;;;;;;;;;;;;;;5095813;28;20430;-66
2022/03/01 12:59:21;;;;;;;10.60;5.60;;;;;;;;;;5095785;28;19908;-67
2022/03/01 13:01:48;;;;;;;11.68;5.93;;;;;;;;;;5103954;27;20156;-66
2022/03/01 13:04:15;;;;;;;9.95;5.55;;;;;;;;;;5108111;28;20023;-66
2022/03/01 13:06:41;;;;;;;10.40;5.85;;;;;;;;;;5108813;28;20094;-67
2022/03/01 13:09:08;;;;;;;10.20;5.75;;;;;;;;;;5092697;28;20391;-67
2022/03/01 13:11:34;;;;;;;11.88;5.93;;;;;;;;;;5107573;28;20027;-67
2022/03/01 13:14:01;;;;;;;12.00;6.63;;;;;;;;;;5098572;28;20032;-66
2022/03/01 13:16:29;;;;;;;10.95;5.90;;;;;;;;;;5092258;28;20032;-67
2022/03/01 13:18:56;;;;;;;10.40;6.10;;;;;;;;;;5107695;28;20024;-66
2022/03/01 13:21:41;;;;;;;13.30;5.85;;;;;;;;;;5109514;28;20489;-67
2022/03/01 13:24:36;;;;;;;9.95;5.60;;;;;;;;;;5106940;27;20080;-66
2022/03/01 13:27:06;;;;;;;10.73;5.68;;;;;;;;;;5073733;28;20032;-67
2022/03/01 13:29:34;;;;;;;11.23;5.30;;;;;;;;;;5111378;28;20163;-66
2022/03/01 13:32:05;;;;;;;10.10;5.55;;;;;;;;;;5107673;28;20345;-66
2022/03/01 13:34:32;;;;;;;10.45;5.97;;;;;;;;;;5110243;27;20142;-67
2022/03/01 13:37:00;;;;;;;9.65;5.90;;;;;;;;;;5105969;28;20121;-67
2022/03/01 13:39:26;;;;;;;8.43;5.05;;;;;;;;;;5107267;27;20023;-66
2022/03/01 13:41:57;;;;;;;9.45;5.70;;;;;;;;;;5104368;28;20019;-66
2022/03/01 13:44:24;;;;;;;9.93;5.20;;;;;;;;;;5105533;28;20027;-67
2022/03/01 13:46:58;;;;;;;12.13;6.28;;;;;;;;;;5086278;28;20897;-67
2022/03/01 13:49:27;;;;;;;9.20;5.80;;;;;;;;;;5085226;28;20374;-66
2022/03/01 13:52:03;;;;;;;10.15;6.28;;;;;;;;;;5104188;28;20139;-66
2022/03/01 13:54:29;;;;;;;8.90;5.82;;;;;;;;;;5103987;28;20512;-66
2022/03/01 13:56:55;;;;;;;9.35;6.03;;;;;;;;;;5104880;28;20020;-66
2022/03/01 13:59:21;;;;;;;10.18;6.10;;;;;;;;;;5105704;28;20484;-67
2022/03/01 14:01:48;;;;;;;10.70;5.80;;;;;;;;;;5103922;28;20032;-67
2022/03/01 14:04:14;;;;;;;8.43;5.50;;;;;;;;;;5103369;28;20031;-66
2022/03/01 14:06:47;;;;;;;9.73;5.68;;;;;;;;;;5103215;28;20035;-66
2022/03/01 14:09:14;;;;;;;9.60;5.55;;;;;;;;;;5104053;28;20081;-66
2022/03/01 14:11:40;;;;;;;9.90;5.65;;;;;;;;;;5105780;28;20019;-66
2022/03/01 14:14:14;;;;;;;11.23;6.10;;;;;;;;;;5101463;28;20055;-66
2022/03/01 14:16:43;;;;;;;9.55;6.13;;;;;;;;;;5084647;28;20088;-66
2022/03/01 14:19:10;;;;;;;8.80;5.38;;;;;;;;;;5104540;28;20058;-66
2022/03/01 14:21:36;;;;;;;8.93;5.60;;;;;;;;;;5087803;28;20035;-66
2022/03/01 14:24:03;;;;;;;9.15;5.45;;;;;;;;;;5102803;28;20063;-66
2022/03/01 14:26:29;;;;;;;9.75;5.70;;;;;;;;;;5087976;28;20023;-66
2022/03/01 14:28:57;;;;;;;9.25;5.20;;;;;;;;;;5103890;28;20516;-66
2022/03/01 14:31:23;;;;;;;12.60;5.57;;;;;;;;;;5103000;28;20026;-66
2022/03/01 14:33:49;;;;;;;9.57;5.50;;;;;;;;;;5088570;28;20407;-66
2022/03/01 14:36:15;;;;;;;8.57;4.82;;;;;;;;;;5109018;28;20031;-67